Time;durP1;ratioP1;P1;durP2;ratioP2;P2;SDS_P1;SDS_P2;PMS_P1;PMS_P2;Temp;Humidity;BMP_temperature;BMP_pressure;BME280_temperature;BME280_humidity;BME280_pressure;Samples;Min_cycle;Max_cycle;Signal;HPM_P1;HPM_P2
2022/11/27 00:00:51;;;;;;;;;;;9.70;76.00;;;;;;5075628;28;19924;-79
2022/11/27 00:03:17;;;;;;;;;;;9.60;75.90;;;;;;5076010;28;19916;-80
2022/11/27 00:05:49;;;;;;;;;;;9.60;75.90;;;;;;5070048;28;19920;-79
2022/11/27 00:08:15;;;;;;;;;;;9.60;75.90;;;;;;5065661;28;19962;-79
2022/11/27 00:10:41;;;;;;;;;;;9.60;75.90;;;;;;5054636;28;19920;-80
2022/11/27 00:13:06;;;;;;;;;;;9.60;75.90;;;;;;5044961;28;19980;-79
2022/11/27 00:15:32;;;;;;;;;;;9.60;75.90;;;;;;5072303;28;19916;-80
2022/11/27 00:17:58;;;;;;;;;;;9.50;75.90;;;;;;5057672;28;20033;-79
2022/11/27 00:20:23;;;;;;;;;;;9.60;75.90;;;;;;5067387;28;19916;-81
2022/11/27 00:22:49;;;;;;;;;;;9.50;75.90;;;;;;5066565;28;20545;-79
2022/11/27 00:25:15;;;;;;;;;;;9.50;75.90;;;;;;5070710;28;19920;-79
2022/11/27 00:27:40;;;;;;;;;;;9.50;75.90;;;;;;5070390;28;19981;-80
2022/11/27 00:30:06;;;;;;;;;;;9.50;75.90;;;;;;5052239;28;20451;-80
2022/11/27 00:32:32;;;;;;;;;;;9.50;75.90;;;;;;5051171;28;19920;-79
2022/11/27 00:34:57;;;;;;;;;;;9.50;75.90;;;;;;5041884;28;19966;-80
2022/11/27 00:37:23;;;;;;;;;;;9.50;75.80;;;;;;5070557;28;19970;-79
2022/11/27 00:39:49;;;;;;;;;;;9.50;75.90;;;;;;5028854;28;20011;-80
2022/11/27 00:42:14;;;;;;;;;;;9.50;75.90;;;;;;5054800;28;19998;-80
2022/11/27 00:44:40;;;;;;;;;;;9.40;75.80;;;;;;5047774;28;19920;-79
2022/11/27 00:47:06;;;;;;;;;;;9.40;75.80;;;;;;5049444;28;19923;-80
2022/11/27 00:49:31;;;;;;;;;;;9.40;75.80;;;;;;5053425;28;19916;-81
2022/11/27 00:51:57;;;;;;;;;;;9.40;75.80;;;;;;5080164;28;19924;-79
2022/11/27 00:54:22;;;;;;;;;;;9.40;75.80;;;;;;5071100;28;20392;-80
2022/11/27 00:56:48;;;;;;;;;;;9.40;75.90;;;;;;5067247;28;19959;-79
2022/11/27 00:59:13;;;;;;;;;;;9.40;75.90;;;;;;5067142;28;19916;-79
2022/11/27 01:01:40;;;;;;;;;;;9.40;75.90;;;;;;5072235;28;19919;-81
2022/11/27 01:04:07;;;;;;;;;;;9.40;75.90;;;;;;5072295;28;19919;-80
2022/11/27 01:06:33;;;;;;;;;;;9.40;75.90;;;;;;5069851;28;19916;-81
2022/11/27 01:08:59;;;;;;;;;;;9.40;75.90;;;;;;5052954;28;19963;-78
2022/11/27 01:11:26;;;;;;;;;;;9.30;75.80;;;;;;5060164;28;20001;-79
2022/11/27 01:13:51;;;;;;;;;;;9.30;75.80;;;;;;5069538;28;19916;-80
2022/11/27 01:16:18;;;;;;;;;;;9.30;75.80;;;;;;5089241;28;19920;-80
2022/11/27 01:18:45;;;;;;;;;;;9.30;75.90;;;;;;5070067;28;19920;-79
2022/11/27 01:21:11;;;;;;;;;;;9.30;75.90;;;;;;5055974;28;19977;-80
2022/11/27 01:23:37;;;;;;;;;;;9.30;75.90;;;;;;5074122;28;20265;-79
2022/11/27 01:26:03;;;;;;;;;;;9.30;75.90;;;;;;5059354;28;19973;-79
2022/11/27 01:28:29;;;;;;;;;;;9.20;75.80;;;;;;5071009;28;19913;-79
2022/11/27 01:30:55;;;;;;;;;;;9.30;75.90;;;;;;5072447;28;19920;-79
2022/11/27 01:33:21;;;;;;;;;;;9.30;75.90;;;;;;5085628;28;20438;-80
2022/11/27 01:35:57;;;;;;;;;;;9.30;75.90;;;;;;5076107;28;19947;-80
2022/11/27 01:38:23;;;;;;;;;;;9.20;75.90;;;;;;5070538;28;19933;-80
2022/11/27 01:40:54;;;;;;;;;;;9.20;75.90;;;;;;5073379;28;19919;-80
2022/11/27 01:43:34;;;;;;;;;;;9.20;75.80;;;;;;5067112;28;19951;-81
2022/11/27 01:46:00;;;;;;;;;;;9.20;75.80;;;;;;5071349;28;20368;-80
2022/11/27 01:48:26;;;;;;;;;;;9.20;75.90;;;;;;5077463;28;19969;-80
2022/11/27 01:50:51;;;;;;;;;;;9.20;75.80;;;;;;5078668;28;19921;-80
2022/11/27 01:53:17;;;;;;;;;;;9.20;75.90;;;;;;5066121;28;19952;-80
2022/11/27 01:55:48;;;;;;;;;;;9.20;75.90;;;;;;5074612;28;19928;-79
2022/11/27 01:58:20;;;;;;;;;;;9.20;75.90;;;;;;5072471;28;19923;-83
2022/11/27 02:00:45;;;;;;;;;;;9.10;75.80;;;;;;5070747;28;19912;-80
2022/11/27 02:03:11;;;;;;;;;;;9.20;75.90;;;;;;5050547;28;20323;-80
2022/11/27 02:05:37;;;;;;;;;;;9.10;75.80;;;;;;5064547;28;19913;-79
2022/11/27 02:08:08;;;;;;;;;;;9.10;75.80;;;;;;5071252;28;19920;-82
2022/11/27 02:10:38;;;;;;;;;;;9.10;75.80;;;;;;5068962;28;20452;-80
2022/11/27 02:13:07;;;;;;;;;;;9.10;75.80;;;;;;5069290;28;19927;-80
2022/11/27 02:15:42;;;;;;;;;;;9.10;75.80;;;;;;5066899;28;19923;-80
2022/11/27 02:18:32;;;;;;;;;;;9.10;75.80;;;;;;5068820;28;20020;-82
2022/11/27 02:21:14;;;;;;;;;;;9.10;75.80;;;;;;5089394;28;19959;-83
2022/11/27 02:23:39;;;;;;;;;;;9.10;75.80;;;;;;5069026;28;19920;-80
2022/11/27 02:26:11;;;;;;;;;;;9.10;75.90;;;;;;5073392;28;20253;-80
2022/11/27 02:28:55;;;;;;;;;;;9.00;75.80;;;;;;5066904;28;20372;-80
2022/11/27 02:31:28;;;;;;;;;;;9.00;75.80;;;;;;5089337;28;20489;-82
2022/11/27 02:33:55;;;;;;;;;;;9.00;75.80;;;;;;5070756;28;20019;-81
2022/11/27 02:36:28;;;;;;;;;;;9.00;75.80;;;;;;5067569;28;19962;-80
2022/11/27 02:38:57;;;;;;;;;;;9.00;75.80;;;;;;5087465;28;19975;-80
2022/11/27 02:41:25;;;;;;;;;;;9.00;75.90;;;;;;5089992;28;19916;-81
2022/11/27 02:43:51;;;;;;;;;;;8.90;75.80;;;;;;5064170;28;19923;-82
2022/11/27 02:46:17;;;;;;;;;;;8.90;75.80;;;;;;5055228;28;19916;-82
2022/11/27 02:48:48;;;;;;;;;;;8.90;75.80;;;;;;5070653;28;19916;-82
2022/11/27 02:51:16;;;;;;;;;;;8.90;75.80;;;;;;5074356;28;19963;-80
2022/11/27 02:53:45;;;;;;;;;;;8.90;75.80;;;;;;5057876;28;19919;-80
2022/11/27 02:56:13;;;;;;;;;;;8.90;75.90;;;;;;5062540;28;19919;-80
2022/11/27 02:58:39;;;;;;;;;;;8.90;75.80;;;;;;5055639;28;19916;-80
2022/11/27 03:01:05;;;;;;;;;;;8.80;75.80;;;;;;5066053;28;19966;-82
2022/11/27 03:03:34;;;;;;;;;;;8.80;75.80;;;;;;5088306;28;20126;-82
2022/11/27 03:06:02;;;;;;;;;;;8.80;75.80;;;;;;5070009;28;19913;-80
2022/11/27 03:08:34;;;;;;;;;;;8.80;75.80;;;;;;5060774;28;20752;-80
2022/11/27 03:11:08;;;;;;;;;;;8.80;75.80;;;;;;5052513;28;19916;-80
2022/11/27 03:13:39;;;;;;;;;;;8.80;75.80;;;;;;5072745;28;19926;-81
2022/11/27 03:16:41;;;;;;;;;;;8.80;75.80;;;;;;5084871;28;19918;-80
2022/11/27 03:19:06;;;;;;;;;;;8.80;75.80;;;;;;5009992;28;19913;-81
2022/11/27 03:21:33;;;;;;;;;;;8.80;75.80;;;;;;5055484;28;20002;-80
2022/11/27 03:23:59;;;;;;;;;;;8.70;75.80;;;;;;5080950;28;19912;-81
2022/11/27 03:26:25;;;;;;;;;;;8.70;75.80;;;;;;5074071;28;20356;-80
2022/11/27 03:28:52;;;;;;;;;;;8.70;75.80;;;;;;5036470;28;19921;-79
2022/11/27 03:31:18;;;;;;;;;;;8.70;75.80;;;;;;5067734;28;19970;-80
2022/11/27 03:33:44;;;;;;;;;;;8.70;75.80;;;;;;5085601;28;19928;-79
2022/11/27 03:36:14;;;;;;;;;;;8.70;75.80;;;;;;5058599;28;19916;-80
2022/11/27 03:38:40;;;;;;;;;;;8.70;75.80;;;;;;5050462;28;19969;-79
2022/11/27 03:41:10;;;;;;;;;;;8.70;75.80;;;;;;5086959;28;20002;-80
2022/11/27 03:43:40;;;;;;;;;;;8.70;75.90;;;;;;5059015;28;19911;-81
2022/11/27 03:46:14;;;;;;;;;;;8.70;75.90;;;;;;5080007;28;20426;-81
2022/11/27 03:48:49;;;;;;;;;;;8.60;75.80;;;;;;5049960;28;19920;-80
2022/11/27 03:51:25;;;;;;;;;;;8.60;75.80;;;;;;5081310;28;20420;-80
2022/11/27 03:54:04;;;;;;;;;;;8.60;75.80;;;;;;5088544;28;19916;-80
2022/11/27 03:56:35;;;;;;;;;;;8.60;75.80;;;;;;5070221;28;19925;-80
2022/11/27 03:59:07;;;;;;;;;;;8.60;75.90;;;;;;5064127;28;20345;-81
2022/11/27 04:01:33;;;;;;;;;;;8.60;75.90;;;;;;5071351;28;19935;-81
2022/11/27 04:03:58;;;;;;;;;;;8.60;75.90;;;;;;5067623;28;19912;-82
2022/11/27 04:06:24;;;;;;;;;;;8.60;75.90;;;;;;5051663;28;20280;-80
2022/11/27 04:08:49;;;;;;;;;;;8.60;75.90;;;;;;5054621;28;20376;-81
2022/11/27 04:11:15;;;;;;;;;;;8.60;75.90;;;;;;5072923;28;19920;-80
2022/11/27 04:13:41;;;;;;;;;;;8.60;75.90;;;;;;5070491;28;19916;-80
2022/11/27 04:16:07;;;;;;;;;;;8.60;75.90;;;;;;5077200;28;19915;-80
2022/11/27 04:18:32;;;;;;;;;;;8.60;75.90;;;;;;5044357;28;19960;-80
2022/11/27 04:20:58;;;;;;;;;;;8.60;75.90;;;;;;5072175;28;19912;-79
2022/11/27 04:23:23;;;;;;;;;;;8.60;76.00;;;;;;5072099;28;20386;-84
2022/11/27 04:25:49;;;;;;;;;;;8.60;76.00;;;;;;5090279;28;20516;-80
2022/11/27 04:28:16;;;;;;;;;;;8.60;75.90;;;;;;5061651;28;20323;-80
2022/11/27 04:30:42;;;;;;;;;;;8.60;75.90;;;;;;5071064;28;19916;-81
2022/11/27 04:33:08;;;;;;;;;;;8.60;75.90;;;;;;5075597;28;20018;-80
2022/11/27 04:35:33;;;;;;;;;;;8.60;76.00;;;;;;5075866;28;20443;-80
2022/11/27 04:37:59;;;;;;;;;;;8.60;75.90;;;;;;5079623;28;19975;-81
2022/11/27 04:40:24;;;;;;;;;;;8.60;75.90;;;;;;5039615;28;20288;-83
2022/11/27 04:42:50;;;;;;;;;;;8.60;75.90;;;;;;5076459;28;19924;-80
2022/11/27 04:45:16;;;;;;;;;;;8.60;76.00;;;;;;5059845;28;20268;-83
2022/11/27 04:47:41;;;;;;;;;;;8.60;75.90;;;;;;5061188;28;19980;-79
2022/11/27 04:50:07;;;;;;;;;;;8.60;75.90;;;;;;5067221;28;19920;-79
2022/11/27 04:52:33;;;;;;;;;;;8.60;75.90;;;;;;5072098;28;19935;-81
2022/11/27 04:54:58;;;;;;;;;;;8.60;75.90;;;;;;5055878;28;19947;-79
2022/11/27 04:57:24;;;;;;;;;;;8.60;76.00;;;;;;5072106;28;20349;-81
2022/11/27 04:59:50;;;;;;;;;;;8.60;75.90;;;;;;5068146;28;19916;-81
2022/11/27 05:02:15;;;;;;;;;;;8.60;76.00;;;;;;5067774;28;20357;-80
2022/11/27 05:04:41;;;;;;;;;;;8.60;75.90;;;;;;5070748;28;19922;-80
2022/11/27 05:07:06;;;;;;;;;;;8.60;75.90;;;;;;5056108;28;19912;-81
2022/11/27 05:09:32;;;;;;;;;;;8.60;75.90;;;;;;5059850;28;19917;-81
2022/11/27 05:11:58;;;;;;;;;;;8.60;75.90;;;;;;5077187;28;19920;-79
2022/11/27 05:14:27;;;;;;;;;;;8.60;75.90;;;;;;5068602;28;19970;-80
2022/11/27 05:16:55;;;;;;;;;;;8.60;76.00;;;;;;5052510;28;19920;-82
2022/11/27 05:19:21;;;;;;;;;;;8.60;76.00;;;;;;5049647;28;19913;-80
2022/11/27 05:21:47;;;;;;;;;;;8.60;75.90;;;;;;5070773;28;20732;-80
2022/11/27 05:24:13;;;;;;;;;;;8.60;75.90;;;;;;5057250;28;20276;-79
2022/11/27 05:26:39;;;;;;;;;;;8.60;75.90;;;;;;5063475;28;19923;-80
2022/11/27 05:29:05;;;;;;;;;;;8.60;76.00;;;;;;5075369;28;19923;-80
2022/11/27 05:31:31;;;;;;;;;;;8.60;76.00;;;;;;5055427;28;19920;-79
2022/11/27 05:33:57;;;;;;;;;;;8.60;76.00;;;;;;5060883;28;19965;-80
2022/11/27 05:36:22;;;;;;;;;;;8.60;75.90;;;;;;5073568;28;19916;-80
2022/11/27 05:38:48;;;;;;;;;;;8.60;76.00;;;;;;5083373;28;19927;-80
2022/11/27 05:41:14;;;;;;;;;;;8.60;76.00;;;;;;5072636;28;19927;-81
2022/11/27 05:43:40;;;;;;;;;;;8.70;76.00;;;;;;5070066;28;20027;-80
2022/11/27 05:46:07;;;;;;;;;;;8.70;76.00;;;;;;5079856;28;20014;-80
2022/11/27 05:48:33;;;;;;;;;;;8.60;76.00;;;;;;5071224;28;19987;-80
2022/11/27 05:50:59;;;;;;;;;;;8.60;76.00;;;;;;5057182;28;20008;-80
2022/11/27 05:53:24;;;;;;;;;;;8.70;76.00;;;;;;5063444;28;19917;-79
2022/11/27 05:55:50;;;;;;;;;;;8.70;76.00;;;;;;5075130;28;20348;-80
2022/11/27 05:58:15;;;;;;;;;;;8.70;76.00;;;;;;5073379;28;20287;-80
2022/11/27 06:00:41;;;;;;;;;;;8.70;76.00;;;;;;5071985;28;20014;-81
2022/11/27 06:03:07;;;;;;;;;;;8.70;76.00;;;;;;5073944;28;19912;-80
2022/11/27 06:05:32;;;;;;;;;;;8.70;76.00;;;;;;5084827;28;19912;-80
2022/11/27 06:07:58;;;;;;;;;;;8.70;76.00;;;;;;5053558;28;19923;-81
2022/11/27 06:10:24;;;;;;;;;;;8.70;76.00;;;;;;5058719;28;19969;-80
2022/11/27 06:12:50;;;;;;;;;;;8.70;76.00;;;;;;5061177;28;19925;-79
2022/11/27 06:15:15;;;;;;;;;;;8.70;76.00;;;;;;5067955;28;20642;-79
2022/11/27 06:17:41;;;;;;;;;;;8.70;76.00;;;;;;5065073;28;19932;-80
2022/11/27 06:20:07;;;;;;;;;;;8.70;76.00;;;;;;5048054;28;19959;-81
2022/11/27 06:22:32;;;;;;;;;;;8.70;76.00;;;;;;5061954;28;20341;-80
2022/11/27 06:24:58;;;;;;;;;;;8.70;76.00;;;;;;5054752;28;20014;-80
2022/11/27 06:27:23;;;;;;;;;;;8.70;76.00;;;;;;5066054;28;19963;-81
2022/11/27 06:29:49;;;;;;;;;;;8.70;76.00;;;;;;5076660;28;19948;-80
2022/11/27 06:32:15;;;;;;;;;;;8.70;76.00;;;;;;5070898;28;19924;-80
2022/11/27 06:34:40;;;;;;;;;;;8.70;76.00;;;;;;5059293;28;19923;-82
2022/11/27 06:37:06;;;;;;;;;;;8.70;76.00;;;;;;5046878;28;21524;-80
2022/11/27 06:39:32;;;;;;;;;;;8.70;76.00;;;;;;5073380;28;20002;-82
2022/11/27 06:41:57;;;;;;;;;;;8.70;76.00;;;;;;5058377;28;20395;-81
2022/11/27 06:44:23;;;;;;;;;;;8.70;76.00;;;;;;5054266;28;19916;-81
2022/11/27 06:46:49;;;;;;;;;;;8.70;76.00;;;;;;5055142;28;19919;-80
2022/11/27 06:49:14;;;;;;;;;;;8.70;76.00;;;;;;5072793;28;19924;-80
2022/11/27 06:51:40;;;;;;;;;;;8.70;76.00;;;;;;5088716;28;19923;-80
2022/11/27 06:54:05;;;;;;;;;;;8.70;76.00;;;;;;5059568;28;19922;-81
2022/11/27 06:56:31;;;;;;;;;;;8.70;76.00;;;;;;5073350;28;20001;-81
2022/11/27 06:58:58;;;;;;;;;;;8.70;76.00;;;;;;5065455;28;20279;-80
2022/11/27 07:01:24;;;;;;;;;;;8.70;76.00;;;;;;5071237;28;19921;-80
2022/11/27 07:03:50;;;;;;;;;;;8.70;76.00;;;;;;5067332;28;19938;-80
2022/11/27 07:06:18;;;;;;;;;;;8.70;76.00;;;;;;5083688;28;20384;-81
2022/11/27 07:08:44;;;;;;;;;;;8.80;76.00;;;;;;5064187;28;19958;-81
2022/11/27 07:11:15;;;;;;;;;;;8.70;76.00;;;;;;5056921;28;19954;-81
2022/11/27 07:13:41;;;;;;;;;;;8.80;76.00;;;;;;5063391;28;19924;-82
2022/11/27 07:16:08;;;;;;;;;;;8.80;76.00;;;;;;5055172;28;19916;-81
2022/11/27 07:18:34;;;;;;;;;;;8.80;76.00;;;;;;5067106;28;20296;-83
2022/11/27 07:21:00;;;;;;;;;;;8.80;76.00;;;;;;5086046;28;19912;-80
2022/11/27 07:23:27;;;;;;;;;;;8.80;76.00;;;;;;5056075;28;20284;-81
2022/11/27 07:25:52;;;;;;;;;;;8.80;76.00;;;;;;5074487;28;20357;-80
2022/11/27 07:28:18;;;;;;;;;;;8.80;76.00;;;;;;5082357;28;19922;-80
2022/11/27 07:30:44;;;;;;;;;;;8.80;76.00;;;;;;5083006;28;19932;-79
2022/11/27 07:33:09;;;;;;;;;;;8.80;76.00;;;;;;5072040;28;19959;-79
2022/11/27 07:35:35;;;;;;;;;;;8.80;76.00;;;;;;5063509;28;19920;-80
2022/11/27 07:38:01;;;;;;;;;;;8.80;76.00;;;;;;5063497;28;19963;-80
2022/11/27 07:40:26;;;;;;;;;;;8.80;76.10;;;;;;5052516;28;20348;-80
2022/11/27 07:42:52;;;;;;;;;;;8.80;76.00;;;;;;5069009;28;19951;-83
2022/11/27 07:45:18;;;;;;;;;;;8.80;76.00;;;;;;5055392;28;19995;-81
2022/11/27 07:47:43;;;;;;;;;;;8.80;76.00;;;;;;5067677;28;19920;-81
2022/11/27 07:50:10;;;;;;;;;;;8.80;76.00;;;;;;5051499;28;19920;-80
2022/11/27 07:52:36;;;;;;;;;;;8.80;76.00;;;;;;5071234;28;19916;-80
2022/11/27 07:55:02;;;;;;;;;;;8.80;76.00;;;;;;5088755;28;19912;-80
2022/11/27 07:57:28;;;;;;;;;;;8.80;76.00;;;;;;5057240;28;20003;-81
2022/11/27 07:59:53;;;;;;;;;;;8.80;76.00;;;;;;5087962;28;20002;-79
2022/11/27 08:02:19;;;;;;;;;;;8.80;76.00;;;;;;5077795;28;19928;-80
2022/11/27 08:04:45;;;;;;;;;;;8.80;76.00;;;;;;5056431;28;19912;-81
2022/11/27 08:07:10;;;;;;;;;;;8.90;76.00;;;;;;5055685;28;19965;-80
2022/11/27 08:09:36;;;;;;;;;;;8.80;76.00;;;;;;5036319;28;19929;-81
2022/11/27 08:12:03;;;;;;;;;;;8.80;76.00;;;;;;5041061;28;20344;-80
2022/11/27 08:14:28;;;;;;;;;;;8.90;76.00;;;;;;5050393;28;19916;-83
2022/11/27 08:16:54;;;;;;;;;;;8.90;76.00;;;;;;5053530;28;19981;-82
2022/11/27 08:19:20;;;;;;;;;;;8.90;76.00;;;;;;5054481;28;20397;-85
2022/11/27 08:21:46;;;;;;;;;;;8.80;76.00;;;;;;5052957;28;19920;-84
2022/11/27 08:24:11;;;;;;;;;;;8.90;76.00;;;;;;5065260;28;19920;-83
2022/11/27 08:26:37;;;;;;;;;;;8.90;76.00;;;;;;5053449;28;19920;-84
2022/11/27 08:29:05;;;;;;;;;;;8.90;76.00;;;;;;5063686;28;20257;-82
2022/11/27 08:31:31;;;;;;;;;;;8.90;76.00;;;;;;5067084;28;19951;-83
2022/11/27 08:33:57;;;;;;;;;;;8.90;76.00;;;;;;5082832;28;20427;-86
2022/11/27 08:36:25;;;;;;;;;;;8.90;76.00;;;;;;5064538;28;20384;-82
2022/11/27 08:38:51;;;;;;;;;;;8.90;76.00;;;;;;5051399;28;20142;-82
2022/11/27 08:41:16;;;;;;;;;;;8.90;76.00;;;;;;5032202;28;20027;-83
2022/11/27 08:43:42;;;;;;;;;;;8.90;76.00;;;;;;5061216;28;19923;-85
2022/11/27 08:46:08;;;;;;;;;;;8.90;76.00;;;;;;5039449;28;20047;-83
2022/11/27 08:48:34;;;;;;;;;;;8.90;76.00;;;;;;5040217;28;20420;-83
2022/11/27 08:51:04;;;;;;;;;;;8.90;76.00;;;;;;5039337;28;19959;-83
2022/11/27 08:53:30;;;;;;;;;;;8.90;76.00;;;;;;5051636;28;19940;-82
2022/11/27 08:56:03;;;;;;;;;;;8.90;76.00;;;;;;5056443;28;20292;-80
2022/11/27 08:58:29;;;;;;;;;;;8.90;76.00;;;;;;5051898;28;19948;-82
2022/11/27 09:00:54;;;;;;;;;;;8.90;76.00;;;;;;5030649;28;19998;-81
2022/11/27 09:03:20;;;;;;;;;;;8.90;76.00;;;;;;5035095;28;19917;-81
2022/11/27 09:05:45;;;;;;;;;;;9.00;76.00;;;;;;5048005;28;19972;-81
2022/11/27 09:08:15;;;;;;;;;;;9.00;76.10;;;;;;5033287;28;20329;-83
2022/11/27 09:10:41;;;;;;;;;;;9.00;76.10;;;;;;5058048;28;19928;-80
2022/11/27 09:13:06;;;;;;;;;;;8.90;76.00;;;;;;5037156;28;19921;-81
2022/11/27 09:15:32;;;;;;;;;;;9.00;76.00;;;;;;5041980;28;19971;-80
2022/11/27 09:17:57;;;;;;;;;;;9.00;76.00;;;;;;5050478;28;19925;-80
2022/11/27 09:20:23;;;;;;;;;;;9.00;76.10;;;;;;5064763;28;20358;-84
2022/11/27 09:22:49;;;;;;;;;;;9.00;76.00;;;;;;5035462;28;19912;-80
2022/11/27 09:25:14;;;;;;;;;;;9.00;76.10;;;;;;5036400;28;19975;-79
2022/11/27 09:27:40;;;;;;;;;;;9.00;76.00;;;;;;5037838;28;20004;-80
2022/11/27 09:30:06;;;;;;;;;;;9.00;76.00;;;;;;5050257;28;20273;-79
2022/11/27 09:32:32;;;;;;;;;;;9.00;76.00;;;;;;5055598;28;20015;-79
2022/11/27 09:34:57;;;;;;;;;;;9.00;76.10;;;;;;5048651;28;20332;-81
2022/11/27 09:37:23;;;;;;;;;;;9.10;76.10;;;;;;5055565;28;20395;-79
2022/11/27 09:39:49;;;;;;;;;;;9.00;76.00;;;;;;5068643;28;19924;-81
2022/11/27 09:42:23;;;;;;;;;;;9.00;76.00;;;;;;5074997;28;19917;-80
2022/11/27 09:44:54;;;;;;;;;;;9.00;76.00;;;;;;5061508;28;19908;-80
2022/11/27 09:47:24;;;;;;;;;;;9.10;76.10;;;;;;5072073;28;19962;-79
2022/11/27 09:49:53;;;;;;;;;;;9.00;76.10;;;;;;5085035;28;19916;-80
2022/11/27 09:52:26;;;;;;;;;;;9.10;76.10;;;;;;5053298;28;19921;-79
2022/11/27 09:54:55;;;;;;;;;;;9.10;76.10;;;;;;5072238;28;19912;-82
2022/11/27 09:57:25;;;;;;;;;;;9.10;76.10;;;;;;5070328;28;19955;-80
2022/11/27 09:59:52;;;;;;;;;;;9.10;76.10;;;;;;5072557;28;19916;-81
2022/11/27 10:02:27;;;;;;;;;;;9.10;76.10;;;;;;5060358;28;19912;-80
2022/11/27 10:04:53;;;;;;;;;;;9.10;76.10;;;;;;5091109;28;19920;-80
2022/11/27 10:07:32;;;;;;;;;;;9.10;76.10;;;;;;5058375;28;19927;-82
2022/11/27 10:10:03;;;;;;;;;;;9.10;76.10;;;;;;5076635;28;19912;-80
2022/11/27 10:12:29;;;;;;;;;;;9.20;76.20;;;;;;5089417;28;19969;-78
2022/11/27 10:15:13;;;;;;;;;;;9.10;76.10;;;;;;5078765;28;20362;-80
2022/11/27 10:17:43;;;;;;;;;;;9.20;76.20;;;;;;5067215;28;19919;-80
2022/11/27 10:20:12;;;;;;;;;;;9.10;76.10;;;;;;5087034;28;19966;-80
2022/11/27 10:22:41;;;;;;;;;;;9.10;76.10;;;;;;5067649;28;19913;-79
2022/11/27 10:25:19;;;;;;;;;;;9.20;76.20;;;;;;5066002;28;19946;-83
2022/11/27 10:28:14;;;;;;;;;;;9.20;76.10;;;;;;5060139;28;19965;-80
2022/11/27 10:30:50;;;;;;;;;;;9.20;76.10;;;;;;5048179;28;20419;-80
2022/11/27 10:33:18;;;;;;;;;;;9.20;76.20;;;;;;5068444;28;20360;-79
2022/11/27 10:35:46;;;;;;;;;;;9.20;76.10;;;;;;5076643;28;19920;-81
2022/11/27 10:38:13;;;;;;;;;;;9.20;76.20;;;;;;5049555;28;19920;-84
2022/11/27 10:40:43;;;;;;;;;;;9.20;76.20;;;;;;5084253;28;19960;-81
2022/11/27 10:43:15;;;;;;;;;;;9.30;76.20;;;;;;5072026;28;19916;-80
2022/11/27 10:45:44;;;;;;;;;;;9.20;76.20;;;;;;5088201;28;19917;-82
2022/11/27 10:48:10;;;;;;;;;;;9.20;76.10;;;;;;5057912;28;19931;-80
2022/11/27 10:50:36;;;;;;;;;;;9.30;76.20;;;;;;5074147;28;20022;-80
2022/11/27 10:53:03;;;;;;;;;;;9.30;76.20;;;;;;5078297;28;20420;-81
2022/11/27 10:55:47;;;;;;;;;;;9.30;76.20;;;;;;5055699;28;19981;-80
2022/11/27 10:58:36;;;;;;;;;;;9.30;76.20;;;;;;5077692;28;19914;-80
2022/11/27 11:01:04;;;;;;;;;;;9.30;76.20;;;;;;5043128;28;19919;-80
2022/11/27 11:03:29;;;;;;;;;;;9.30;76.20;;;;;;5055330;28;19911;-82
2022/11/27 11:05:57;;;;;;;;;;;9.30;76.20;;;;;;5061675;28;19969;-81
2022/11/27 11:08:24;;;;;;;;;;;9.30;76.20;;;;;;5074113;28;19951;-80
2022/11/27 11:11:08;;;;;;;;;;;9.30;76.20;;;;;;5070597;28;20289;-81
2022/11/27 11:13:39;;;;;;;;;;;9.30;76.20;;;;;;5089553;28;20018;-81
2022/11/27 11:16:31;;;;;;;;;;;9.40;76.20;;;;;;5094579;28;19912;-82
2022/11/27 11:18:57;;;;;;;;;;;9.40;76.20;;;;;;5057608;28;19920;-80
2022/11/27 11:21:26;;;;;;;;;;;9.40;76.20;;;;;;5066535;28;19911;-80
2022/11/27 11:23:56;;;;;;;;;;;9.40;76.20;;;;;;5060359;28;19954;-83
2022/11/27 11:26:22;;;;;;;;;;;9.40;76.20;;;;;;5070062;28;20423;-82
2022/11/27 11:28:49;;;;;;;;;;;9.40;76.20;;;;;;5091121;28;19966;-80
2022/11/27 11:31:17;;;;;;;;;;;9.40;76.20;;;;;;5071935;28;20287;-81
2022/11/27 11:34:09;;;;;;;;;;;9.40;76.20;;;;;;5061301;28;19916;-81
2022/11/27 11:36:35;;;;;;;;;;;9.40;76.20;;;;;;5042724;28;19963;-81
2022/11/27 11:39:00;;;;;;;;;;;9.40;76.20;;;;;;5036560;28;20404;-81
2022/11/27 11:41:34;;;;;;;;;;;9.50;76.20;;;;;;5050391;28;19966;-81
2022/11/27 11:44:01;;;;;;;;;;;9.50;76.20;;;;;;5039515;28;20285;-80
2022/11/27 11:46:29;;;;;;;;;;;9.50;76.20;;;;;;5063024;28;19999;-81
2022/11/27 11:49:01;;;;;;;;;;;9.50;76.20;;;;;;5055982;28;20577;-80
2022/11/27 11:51:47;;;;;;;;;;;9.50;76.20;;;;;;5049586;28;19949;-80
2022/11/27 11:54:20;;;;;;;;;;;9.50;76.20;;;;;;5035462;28;20373;-81
2022/11/27 11:56:51;;;;;;;;;;;9.50;76.20;;;;;;5027901;28;19913;-80
2022/11/27 11:59:35;;;;;;;;;;;9.60;76.20;;;;;;5032570;28;19909;-81
2022/11/27 12:02:13;;;;;;;;;;;9.60;76.20;;;;;;5029403;28;19917;-82
2022/11/27 12:04:42;;;;;;;;;;;9.60;76.20;;;;;;5029712;28;19936;-82
2022/11/27 12:07:17;;;;;;;;;;;9.60;76.20;;;;;;5030597;28;19912;-80
2022/11/27 12:09:45;;;;;;;;;;;9.60;76.20;;;;;;5032885;28;19913;-80
2022/11/27 12:12:30;;;;;;;;;;;9.60;76.20;;;;;;5040704;28;19917;-82
2022/11/27 12:15:02;;;;;;;;;;;9.60;76.20;;;;;;5057597;28;19920;-82
2022/11/27 12:17:45;;;;;;;;;;;9.60;76.20;;;;;;5043235;28;20272;-82
2022/11/27 12:20:43;;;;;;;;;;;9.60;76.20;;;;;;5026546;28;19921;-82
2022/11/27 12:23:15;;;;;;;;;;;9.60;76.20;;;;;;4988603;28;20023;-80
2022/11/27 12:25:45;;;;;;;;;;;9.60;76.20;;;;;;5045496;28;19927;-80
2022/11/27 12:28:14;;;;;;;;;;;9.70;76.30;;;;;;5041536;28;19920;-81
2022/11/27 12:30:39;;;;;;;;;;;9.70;76.30;;;;;;5046975;28;19983;-81
2022/11/27 12:33:08;;;;;;;;;;;9.70;76.20;;;;;;5049087;28;20576;-82
2022/11/27 12:35:40;;;;;;;;;;;9.70;76.20;;;;;;5047072;28;20031;-82
2022/11/27 12:38:18;;;;;;;;;;;9.70;76.30;;;;;;5062254;28;20355;-83
2022/11/27 12:41:02;;;;;;;;;;;9.70;76.20;;;;;;5068806;28;19926;-83
2022/11/27 12:43:32;;;;;;;;;;;9.70;76.20;;;;;;5070771;28;19938;-83
2022/11/27 12:46:01;;;;;;;;;;;9.70;76.20;;;;;;5068919;28;19956;-82
2022/11/27 12:48:27;;;;;;;;;;;9.70;76.20;;;;;;5067797;28;19966;-81
2022/11/27 12:50:55;;;;;;;;;;;9.80;76.20;;;;;;5089521;28;19920;-80
2022/11/27 12:53:39;;;;;;;;;;;9.80;76.20;;;;;;5058383;28;19916;-81
2022/11/27 12:56:05;;;;;;;;;;;9.80;76.20;;;;;;5054130;28;20281;-82
2022/11/27 12:58:32;;;;;;;;;;;9.80;76.20;;;;;;5073660;28;19920;-80
2022/11/27 13:01:15;;;;;;;;;;;9.80;76.20;;;;;;5066556;28;20344;-84
2022/11/27 13:04:00;;;;;;;;;;;9.90;76.20;;;;;;5059741;28;20370;-81
2022/11/27 13:06:27;;;;;;;;;;;9.90;76.20;;;;;;5088835;28;19920;-82
2022/11/27 13:09:00;;;;;;;;;;;9.80;76.10;;;;;;5070342;28;19919;-83
2022/11/27 13:11:31;;;;;;;;;;;9.90;76.20;;;;;;5077932;28;19927;-81
2022/11/27 13:14:11;;;;;;;;;;;9.90;76.20;;;;;;5061884;28;19939;-82
2022/11/27 13:16:40;;;;;;;;;;;9.90;76.20;;;;;;5073125;28;19913;-80
2022/11/27 13:19:14;;;;;;;;;;;9.90;76.20;;;;;;5054663;28;19971;-83
2022/11/27 13:21:40;;;;;;;;;;;9.90;76.20;;;;;;5080564;28;20376;-80
2022/11/27 13:24:10;;;;;;;;;;;9.90;76.20;;;;;;5055491;28;19920;-84
2022/11/27 13:26:40;;;;;;;;;;;9.90;76.10;;;;;;5059348;28;20442;-80
2022/11/27 13:29:14;;;;;;;;;;;9.90;76.10;;;;;;5093312;28;20013;-81
2022/11/27 13:31:42;;;;;;;;;;;9.90;76.10;;;;;;5090007;28;19939;-82
2022/11/27 13:34:14;;;;;;;;;;;10.00;76.20;;;;;;5075547;28;19922;-81
2022/11/27 13:36:41;;;;;;;;;;;10.00;76.10;;;;;;5067544;28;19913;-81
2022/11/27 13:39:20;;;;;;;;;;;10.00;76.10;;;;;;5091281;28;19927;-81
2022/11/27 13:41:46;;;;;;;;;;;10.00;76.20;;;;;;5068588;28;19912;-81
2022/11/27 13:44:23;;;;;;;;;;;10.00;76.10;;;;;;5058622;28;20016;-83
2022/11/27 13:46:52;;;;;;;;;;;10.00;76.10;;;;;;5090889;28;19912;-80
2022/11/27 13:49:25;;;;;;;;;;;10.00;76.10;;;;;;5078308;28;20292;-84
2022/11/27 13:51:50;;;;;;;;;;;10.10;76.20;;;;;;5080187;28;19919;-81
2022/11/27 13:54:18;;;;;;;;;;;10.00;76.10;;;;;;5078067;28;19920;-81
2022/11/27 13:56:44;;;;;;;;;;;10.10;76.10;;;;;;5067038;28;20034;-81
2022/11/27 13:59:14;;;;;;;;;;;10.10;76.20;;;;;;5069838;28;20415;-81
2022/11/27 14:01:51;;;;;;;;;;;10.10;76.20;;;;;;5070032;28;20024;-81
2022/11/27 14:04:16;;;;;;;;;;;10.10;76.10;;;;;;5084017;28;19920;-82
2022/11/27 14:06:42;;;;;;;;;;;10.10;76.10;;;;;;5081040;28;19922;-81
2022/11/27 14:09:08;;;;;;;;;;;10.10;76.10;;;;;;5068423;28;19977;-82
2022/11/27 14:11:44;;;;;;;;;;;10.10;76.10;;;;;;5075806;28;19958;-81
2022/11/27 14:14:17;;;;;;;;;;;10.10;76.10;;;;;;5055825;28;19920;-80
2022/11/27 14:16:52;;;;;;;;;;;10.10;76.10;;;;;;5071878;28;19973;-81
2022/11/27 14:19:23;;;;;;;;;;;10.10;76.10;;;;;;5055719;28;20372;-81
2022/11/27 14:21:48;;;;;;;;;;;10.10;76.10;;;;;;5070291;28;19927;-81
2022/11/27 14:24:42;;;;;;;;;;;10.10;76.10;;;;;;5080940;28;19916;-80
2022/11/27 14:27:21;;;;;;;;;;;10.10;76.10;;;;;;5052370;28;20059;-81
2022/11/27 14:29:47;;;;;;;;;;;10.10;76.10;;;;;;5073911;28;20748;-80
2022/11/27 14:32:14;;;;;;;;;;;10.10;76.10;;;;;;5073017;28;20269;-80
2022/11/27 14:34:40;;;;;;;;;;;10.10;76.10;;;;;;5060622;28;19974;-80
2022/11/27 14:37:16;;;;;;;;;;;10.10;76.10;;;;;;5073731;28;19916;-81